sensor_id;sensor_type;location;lat;lon;timestamp;temperature;humidity
55004;DHT22;40900;52.710;6.438;2022-09-09T00:01:19;15.40;99.90
55004;DHT22;40900;52.710;6.438;2022-09-09T00:04:00;15.50;99.90
55004;DHT22;40900;52.710;6.438;2022-09-09T00:06:31;15.40;99.90
55004;DHT22;40900;52.710;6.438;2022-09-09T00:09:40;15.50;99.90
55004;DHT22;40900;52.710;6.438;2022-09-09T00:12:08;15.40;99.90
55004;DHT22;40900;52.710;6.438;2022-09-09T00:14:49;15.40;99.90
55004;DHT22;40900;52.710;6.438;2022-09-09T00:17:38;15.40;99.90
55004;DHT22;40900;52.710;6.438;2022-09-09T00:20:11;15.30;99.90
55004;DHT22;40900;52.710;6.438;2022-09-09T00:22:47;15.40;99.90
55004;DHT22;40900;52.710;6.438;2022-09-09T00:25:26;15.30;99.90
55004;DHT22;40900;52.710;6.438;2022-09-09T00:27:54;15.40;99.90
55004;DHT22;40900;52.710;6.438;2022-09-09T00:30:25;15.40;99.90
55004;DHT22;40900;52.710;6.438;2022-09-09T00:32:59;15.40;99.90
55004;DHT22;40900;52.710;6.438;2022-09-09T00:37:58;15.40;99.90
55004;DHT22;40900;52.710;6.438;2022-09-09T00:40:45;15.40;99.90
55004;DHT22;40900;52.710;6.438;2022-09-09T00:43:32;15.40;99.90
55004;DHT22;40900;52.710;6.438;2022-09-09T00:46:34;15.40;99.90
55004;DHT22;40900;52.710;6.438;2022-09-09T00:55:07;15.40;99.90
55004;DHT22;40900;52.710;6.438;2022-09-09T00:57:35;15.40;99.90
55004;DHT22;40900;52.710;6.438;2022-09-09T01:00:27;15.40;99.90
55004;DHT22;40900;52.710;6.438;2022-09-09T01:11:32;15.20;99.90
55004;DHT22;40900;52.710;6.438;2022-09-09T01:14:22;15.20;99.90
55004;DHT22;40900;52.710;6.438;2022-09-09T01:16:54;15.30;99.90
55004;DHT22;40900;52.710;6.438;2022-09-09T01:22:35;15.20;99.90
55004;DHT22;40900;52.710;6.438;2022-09-09T01:27:43;15.10;99.90
55004;DHT22;40900;52.710;6.438;2022-09-09T01:30:13;15.10;99.90
55004;DHT22;40900;52.710;6.438;2022-09-09T01:32:42;15.20;99.90
55004;DHT22;40900;52.710;6.438;2022-09-09T01:35:13;15.20;99.90
55004;DHT22;40900;52.710;6.438;2022-09-09T01:37:40;15.20;99.90
55004;DHT22;40900;52.710;6.438;2022-09-09T01:40:07;15.20;99.90
55004;DHT22;40900;52.710;6.438;2022-09-09T01:42:33;15.30;99.90
55004;DHT22;40900;52.710;6.438;2022-09-09T01:44:59;15.30;99.90
55004;DHT22;40900;52.710;6.438;2022-09-09T01:47:24;15.30;99.90
55004;DHT22;40900;52.710;6.438;2022-09-09T01:49:50;15.30;99.90
55004;DHT22;40900;52.710;6.438;2022-09-09T01:52:16;15.30;99.90
55004;DHT22;40900;52.710;6.438;2022-09-09T01:54:42;15.40;99.90
55004;DHT22;40900;52.710;6.438;2022-09-09T02:00:04;15.30;99.90
55004;DHT22;40900;52.710;6.438;2022-09-09T02:05:36;15.30;99.90
55004;DHT22;40900;52.710;6.438;2022-09-09T02:08:09;15.30;99.90
55004;DHT22;40900;52.710;6.438;2022-09-09T02:13:16;15.30;99.90
55004;DHT22;40900;52.710;6.438;2022-09-09T02:18:12;15.30;99.90
55004;DHT22;40900;52.710;6.438;2022-09-09T02:20:39;15.30;99.90
55004;DHT22;40900;52.710;6.438;2022-09-09T02:23:07;15.40;99.90
55004;DHT22;40900;52.710;6.438;2022-09-09T02:25:35;15.40;99.90
55004;DHT22;40900;52.710;6.438;2022-09-09T02:28:04;15.30;99.90
55004;DHT22;40900;52.710;6.438;2022-09-09T02:30:33;15.30;99.90
55004;DHT22;40900;52.710;6.438;2022-09-09T02:33:02;15.30;99.90
55004;DHT22;40900;52.710;6.438;2022-09-09T02:35:30;15.40;99.90
55004;DHT22;40900;52.710;6.438;2022-09-09T02:38:01;15.40;99.90
55004;DHT22;40900;52.710;6.438;2022-09-09T02:40:28;15.40;99.90
55004;DHT22;40900;52.710;6.438;2022-09-09T02:42:54;15.40;99.90
55004;DHT22;40900;52.710;6.438;2022-09-09T02:45:24;15.40;99.90
55004;DHT22;40900;52.710;6.438;2022-09-09T02:48:11;15.30;99.90
55004;DHT22;40900;52.710;6.438;2022-09-09T02:53:47;15.40;99.90
55004;DHT22;40900;52.710;6.438;2022-09-09T02:56:17;15.30;99.90
55004;DHT22;40900;52.710;6.438;2022-09-09T02:58:45;15.30;99.90
55004;DHT22;40900;52.710;6.438;2022-09-09T03:01:12;15.30;99.90
55004;DHT22;40900;52.710;6.438;2022-09-09T03:03:37;15.30;99.90
55004;DHT22;40900;52.710;6.438;2022-09-09T03:06:03;15.30;99.90
55004;DHT22;40900;52.710;6.438;2022-09-09T03:08:31;15.30;99.90
55004;DHT22;40900;52.710;6.438;2022-09-09T03:10:59;15.30;99.90
55004;DHT22;40900;52.710;6.438;2022-09-09T03:13:26;15.30;99.90
55004;DHT22;40900;52.710;6.438;2022-09-09T03:15:52;15.20;99.90
55004;DHT22;40900;52.710;6.438;2022-09-09T03:18:18;15.20;99.90
55004;DHT22;40900;52.710;6.438;2022-09-09T03:20:43;15.20;99.90
55004;DHT22;40900;52.710;6.438;2022-09-09T03:23:09;15.20;99.90
55004;DHT22;40900;52.710;6.438;2022-09-09T03:25:35;15.20;99.90
55004;DHT22;40900;52.710;6.438;2022-09-09T03:28:01;15.10;99.90
55004;DHT22;40900;52.710;6.438;2022-09-09T03:30:27;15.10;99.90
55004;DHT22;40900;52.710;6.438;2022-09-09T03:32:53;15.10;99.90
55004;DHT22;40900;52.710;6.438;2022-09-09T03:35:20;15.10;99.90
55004;DHT22;40900;52.710;6.438;2022-09-09T03:37:46;15.10;99.90
55004;DHT22;40900;52.710;6.438;2022-09-09T03:40:13;15.10;99.90
55004;DHT22;40900;52.710;6.438;2022-09-09T03:42:39;15.10;99.90
55004;DHT22;40900;52.710;6.438;2022-09-09T03:45:07;15.10;99.90
55004;DHT22;40900;52.710;6.438;2022-09-09T03:47:34;15.10;99.90
55004;DHT22;40900;52.710;6.438;2022-09-09T03:50:00;15.10;99.90
55004;DHT22;40900;52.710;6.438;2022-09-09T03:52:26;15.10;99.90
55004;DHT22;40900;52.710;6.438;2022-09-09T03:54:53;15.10;99.90
55004;DHT22;40900;52.710;6.438;2022-09-09T03:57:20;15.10;99.90
55004;DHT22;40900;52.710;6.438;2022-09-09T03:59:45;15.00;99.90
55004;DHT22;40900;52.710;6.438;2022-09-09T04:02:11;15.00;99.90
55004;DHT22;40900;52.710;6.438;2022-09-09T04:04:37;15.00;99.90
55004;DHT22;40900;52.710;6.438;2022-09-09T04:07:03;15.00;99.90
55004;DHT22;40900;52.710;6.438;2022-09-09T04:09:31;14.90;99.90
55004;DHT22;40900;52.710;6.438;2022-09-09T04:11:57;14.90;99.90
55004;DHT22;40900;52.710;6.438;2022-09-09T04:14:22;14.80;99.90
55004;DHT22;40900;52.710;6.438;2022-09-09T04:16:48;14.80;99.90
55004;DHT22;40900;52.710;6.438;2022-09-09T04:19:14;14.80;99.90
55004;DHT22;40900;52.710;6.438;2022-09-09T04:21:41;14.80;99.90
55004;DHT22;40900;52.710;6.438;2022-09-09T04:24:09;14.80;99.90
55004;DHT22;40900;52.710;6.438;2022-09-09T04:26:36;14.80;99.90
55004;DHT22;40900;52.710;6.438;2022-09-09T04:29:05;14.80;99.90
55004;DHT22;40900;52.710;6.438;2022-09-09T04:31:32;14.80;99.90
55004;DHT22;40900;52.710;6.438;2022-09-09T04:33:58;14.70;99.90
55004;DHT22;40900;52.710;6.438;2022-09-09T04:36:24;14.70;99.90
55004;DHT22;40900;52.710;6.438;2022-09-09T04:38:49;14.70;99.90
55004;DHT22;40900;52.710;6.438;2022-09-09T04:41:15;14.70;99.90
55004;DHT22;40900;52.710;6.438;2022-09-09T04:43:42;14.70;99.90
55004;DHT22;40900;52.710;6.438;2022-09-09T04:46:08;14.70;99.90
55004;DHT22;40900;52.710;6.438;2022-09-09T04:48:34;14.60;99.90
55004;DHT22;40900;52.710;6.438;2022-09-09T04:51:00;14.60;99.90
55004;DHT22;40900;52.710;6.438;2022-09-09T04:53:27;14.60;99.90
55004;DHT22;40900;52.710;6.438;2022-09-09T04:56:01;14.50;99.90
55004;DHT22;40900;52.710;6.438;2022-09-09T04:58:27;14.50;99.90
55004;DHT22;40900;52.710;6.438;2022-09-09T05:00:53;14.50;99.90
55004;DHT22;40900;52.710;6.438;2022-09-09T05:03:19;14.40;99.90
55004;DHT22;40900;52.710;6.438;2022-09-09T05:05:45;14.40;99.90
55004;DHT22;40900;52.710;6.438;2022-09-09T05:08:10;14.40;99.90
55004;DHT22;40900;52.710;6.438;2022-09-09T05:10:38;14.40;99.90
55004;DHT22;40900;52.710;6.438;2022-09-09T05:13:04;14.30;99.90
55004;DHT22;40900;52.710;6.438;2022-09-09T05:15:31;14.30;99.90
55004;DHT22;40900;52.710;6.438;2022-09-09T05:17:59;14.30;99.90
55004;DHT22;40900;52.710;6.438;2022-09-09T05:20:26;14.30;99.90
55004;DHT22;40900;52.710;6.438;2022-09-09T05:22:55;14.30;99.90
55004;DHT22;40900;52.710;6.438;2022-09-09T05:25:22;14.30;99.90
55004;DHT22;40900;52.710;6.438;2022-09-09T05:27:48;14.30;99.90
55004;DHT22;40900;52.710;6.438;2022-09-09T05:30:15;14.30;99.90
55004;DHT22;40900;52.710;6.438;2022-09-09T05:32:40;14.40;99.90
55004;DHT22;40900;52.710;6.438;2022-09-09T05:35:06;14.40;99.90
55004;DHT22;40900;52.710;6.438;2022-09-09T05:37:32;14.40;99.90
55004;DHT22;40900;52.710;6.438;2022-09-09T05:39:58;14.40;99.90
55004;DHT22;40900;52.710;6.438;2022-09-09T05:42:24;14.50;99.90
55004;DHT22;40900;52.710;6.438;2022-09-09T05:44:50;14.50;99.90
55004;DHT22;40900;52.710;6.438;2022-09-09T05:47:16;14.50;99.90
55004;DHT22;40900;52.710;6.438;2022-09-09T05:49:42;14.50;99.90
55004;DHT22;40900;52.710;6.438;2022-09-09T05:52:08;14.60;99.90
55004;DHT22;40900;52.710;6.438;2022-09-09T05:54:35;14.60;99.90
55004;DHT22;40900;52.710;6.438;2022-09-09T05:57:03;14.60;99.90
55004;DHT22;40900;52.710;6.438;2022-09-09T05:59:29;14.70;99.90
55004;DHT22;40900;52.710;6.438;2022-09-09T06:01:54;14.70;99.90
55004;DHT22;40900;52.710;6.438;2022-09-09T06:04:20;14.70;99.90
55004;DHT22;40900;52.710;6.438;2022-09-09T06:06:47;14.80;99.90
55004;DHT22;40900;52.710;6.438;2022-09-09T06:09:14;14.90;99.90
55004;DHT22;40900;52.710;6.438;2022-09-09T06:11:40;14.90;99.90
55004;DHT22;40900;52.710;6.438;2022-09-09T06:14:07;14.90;99.90
55004;DHT22;40900;52.710;6.438;2022-09-09T06:16:33;14.90;99.90
55004;DHT22;40900;52.710;6.438;2022-09-09T06:19:00;15.00;99.90
55004;DHT22;40900;52.710;6.438;2022-09-09T06:21:32;15.00;99.90
55004;DHT22;40900;52.710;6.438;2022-09-09T06:23:59;15.10;99.90
55004;DHT22;40900;52.710;6.438;2022-09-09T06:26:36;15.10;99.90
55004;DHT22;40900;52.710;6.438;2022-09-09T06:29:03;15.00;99.90
55004;DHT22;40900;52.710;6.438;2022-09-09T06:31:30;15.00;99.90
55004;DHT22;40900;52.710;6.438;2022-09-09T06:33:58;15.00;99.90
55004;DHT22;40900;52.710;6.438;2022-09-09T06:36:24;15.00;99.90
55004;DHT22;40900;52.710;6.438;2022-09-09T06:38:50;15.00;99.90
55004;DHT22;40900;52.710;6.438;2022-09-09T06:41:18;15.10;99.90
55004;DHT22;40900;52.710;6.438;2022-09-09T06:43:45;15.10;99.90
55004;DHT22;40900;52.710;6.438;2022-09-09T06:46:16;15.10;99.90
55004;DHT22;40900;52.710;6.438;2022-09-09T06:48:43;15.10;99.90
55004;DHT22;40900;52.710;6.438;2022-09-09T06:51:12;15.20;99.90
55004;DHT22;40900;52.710;6.438;2022-09-09T06:53:40;15.20;99.90
55004;DHT22;40900;52.710;6.438;2022-09-09T06:56:25;15.30;99.90
55004;DHT22;40900;52.710;6.438;2022-09-09T06:58:51;15.40;99.90
55004;DHT22;40900;52.710;6.438;2022-09-09T07:01:20;15.40;99.90
55004;DHT22;40900;52.710;6.438;2022-09-09T07:03:51;15.50;99.90
55004;DHT22;40900;52.710;6.438;2022-09-09T07:06:25;15.60;99.90
55004;DHT22;40900;52.710;6.438;2022-09-09T07:08:58;15.80;99.90
55004;DHT22;40900;52.710;6.438;2022-09-09T07:11:30;15.90;99.90
55004;DHT22;40900;52.710;6.438;2022-09-09T07:14:00;16.10;99.90
55004;DHT22;40900;52.710;6.438;2022-09-09T07:16:27;16.20;99.90
55004;DHT22;40900;52.710;6.438;2022-09-09T07:18:53;16.30;99.90
55004;DHT22;40900;52.710;6.438;2022-09-09T07:21:24;16.40;99.90
55004;DHT22;40900;52.710;6.438;2022-09-09T07:23:51;16.60;99.90
55004;DHT22;40900;52.710;6.438;2022-09-09T07:26:20;16.80;99.90
55004;DHT22;40900;52.710;6.438;2022-09-09T07:28:46;16.80;99.90
55004;DHT22;40900;52.710;6.438;2022-09-09T07:31:23;17.00;99.90
55004;DHT22;40900;52.710;6.438;2022-09-09T07:33:49;17.30;99.90
55004;DHT22;40900;52.710;6.438;2022-09-09T07:36:16;17.50;99.90
55004;DHT22;40900;52.710;6.438;2022-09-09T07:38:48;17.60;99.90
55004;DHT22;40900;52.710;6.438;2022-09-09T07:41:26;17.90;99.90
55004;DHT22;40900;52.710;6.438;2022-09-09T07:43:53;18.10;99.90
55004;DHT22;40900;52.710;6.438;2022-09-09T07:46:25;18.30;99.90
55004;DHT22;40900;52.710;6.438;2022-09-09T07:48:53;18.40;99.90
55004;DHT22;40900;52.710;6.438;2022-09-09T07:51:25;18.50;99.90
55004;DHT22;40900;52.710;6.438;2022-09-09T07:53:57;18.50;99.90
55004;DHT22;40900;52.710;6.438;2022-09-09T07:56:24;18.40;99.90
55004;DHT22;40900;52.710;6.438;2022-09-09T07:58:52;18.30;99.90
55004;DHT22;40900;52.710;6.438;2022-09-09T08:01:24;18.40;99.90
55004;DHT22;40900;52.710;6.438;2022-09-09T08:03:58;18.40;99.90
55004;DHT22;40900;52.710;6.438;2022-09-09T08:06:25;18.40;99.90
55004;DHT22;40900;52.710;6.438;2022-09-09T08:08:52;18.50;99.90
55004;DHT22;40900;52.710;6.438;2022-09-09T08:11:18;18.70;99.90
55004;DHT22;40900;52.710;6.438;2022-09-09T08:13:44;19.00;99.90
55004;DHT22;40900;52.710;6.438;2022-09-09T08:16:19;19.30;99.90
55004;DHT22;40900;52.710;6.438;2022-09-09T08:18:47;19.60;99.90
55004;DHT22;40900;52.710;6.438;2022-09-09T08:21:20;19.70;99.90
55004;DHT22;40900;52.710;6.438;2022-09-09T08:23:47;19.40;99.90
55004;DHT22;40900;52.710;6.438;2022-09-09T08:26:19;19.10;99.90
55004;DHT22;40900;52.710;6.438;2022-09-09T08:28:49;19.00;99.90
55004;DHT22;40900;52.710;6.438;2022-09-09T08:31:21;19.00;99.90
55004;DHT22;40900;52.710;6.438;2022-09-09T08:33:47;19.30;99.90
55004;DHT22;40900;52.710;6.438;2022-09-09T08:36:19;19.70;99.90
55004;DHT22;40900;52.710;6.438;2022-09-09T08:38:50;19.90;99.90
55004;DHT22;40900;52.710;6.438;2022-09-09T08:47:42;19.70;99.90
55004;DHT22;40900;52.710;6.438;2022-09-09T08:56:14;19.00;99.90
55004;DHT22;40900;52.710;6.438;2022-09-09T08:58:34;19.00;99.90
55004;DHT22;40900;52.710;6.438;2022-09-09T09:08:55;20.40;99.90
55004;DHT22;40900;52.710;6.438;2022-09-09T09:11:21;20.80;99.90
55004;DHT22;40900;52.710;6.438;2022-09-09T09:14:03;20.80;99.90
55004;DHT22;40900;52.710;6.438;2022-09-09T09:16:42;20.70;99.90
55004;DHT22;40900;52.710;6.438;2022-09-09T09:19:15;20.30;99.90
55004;DHT22;40900;52.710;6.438;2022-09-09T09:21:44;20.00;99.90
55004;DHT22;40900;52.710;6.438;2022-09-09T09:26:51;20.00;99.90
55004;DHT22;40900;52.710;6.438;2022-09-09T09:29:19;20.20;99.90
55004;DHT22;40900;52.710;6.438;2022-09-09T09:31:53;19.90;99.90
55004;DHT22;40900;52.710;6.438;2022-09-09T09:34:20;19.70;99.90
55004;DHT22;40900;52.710;6.438;2022-09-09T09:36:53;19.40;99.90
55004;DHT22;40900;52.710;6.438;2022-09-09T09:39:28;19.20;99.90
55004;DHT22;40900;52.710;6.438;2022-09-09T09:41:55;19.00;99.90
55004;DHT22;40900;52.710;6.438;2022-09-09T09:44:31;18.90;99.90
55004;DHT22;40900;52.710;6.438;2022-09-09T09:47:13;18.70;99.90
55004;DHT22;40900;52.710;6.438;2022-09-09T09:49:51;18.70;99.90
55004;DHT22;40900;52.710;6.438;2022-09-09T09:52:28;18.60;99.90
55004;DHT22;40900;52.710;6.438;2022-09-09T09:54:56;18.70;99.90
55004;DHT22;40900;52.710;6.438;2022-09-09T09:57:26;19.00;99.90
55004;DHT22;40900;52.710;6.438;2022-09-09T10:00:12;19.40;99.90
55004;DHT22;40900;52.710;6.438;2022-09-09T10:02:40;19.60;99.90
55004;DHT22;40900;52.710;6.438;2022-09-09T10:05:26;19.70;99.90
55004;DHT22;40900;52.710;6.438;2022-09-09T10:08:05;19.80;99.90
55004;DHT22;40900;52.710;6.438;2022-09-09T10:13:30;19.80;99.90
55004;DHT22;40900;52.710;6.438;2022-09-09T10:16:25;20.10;99.90
55004;DHT22;40900;52.710;6.438;2022-09-09T10:18:59;19.90;99.90
55004;DHT22;40900;52.710;6.438;2022-09-09T10:24:48;19.60;99.90
55004;DHT22;40900;52.710;6.438;2022-09-09T10:27:42;19.40;99.90
55004;DHT22;40900;52.710;6.438;2022-09-09T10:30:27;19.20;99.90
55004;DHT22;40900;52.710;6.438;2022-09-09T10:33:10;19.00;99.90
55004;DHT22;40900;52.710;6.438;2022-09-09T10:57:31;18.90;99.90
55004;DHT22;40900;52.710;6.438;2022-09-09T11:00:06;19.00;99.90
55004;DHT22;40900;52.710;6.438;2022-09-09T11:02:34;19.00;99.90
55004;DHT22;40900;52.710;6.438;2022-09-09T11:05:12;19.00;99.90
55004;DHT22;40900;52.710;6.438;2022-09-09T11:08:02;19.00;99.90
55004;DHT22;40900;52.710;6.438;2022-09-09T11:16:30;19.00;99.90
55004;DHT22;40900;52.710;6.438;2022-09-09T11:19:15;18.90;99.90
55004;DHT22;40900;52.710;6.438;2022-09-09T11:21:48;18.70;99.90
55004;DHT22;40900;52.710;6.438;2022-09-09T11:24:20;18.60;99.90
55004;DHT22;40900;52.710;6.438;2022-09-09T11:26:58;18.60;99.90
55004;DHT22;40900;52.710;6.438;2022-09-09T11:29:44;18.70;99.90
55004;DHT22;40900;52.710;6.438;2022-09-09T11:32:51;18.80;99.90
55004;DHT22;40900;52.710;6.438;2022-09-09T11:40:35;19.50;99.90
55004;DHT22;40900;52.710;6.438;2022-09-09T11:43:03;19.70;99.90
55004;DHT22;40900;52.710;6.438;2022-09-09T11:45:32;19.70;99.90
55004;DHT22;40900;52.710;6.438;2022-09-09T11:48:02;19.80;99.90
55004;DHT22;40900;52.710;6.438;2022-09-09T11:50:34;20.10;99.90
55004;DHT22;40900;52.710;6.438;2022-09-09T11:53:20;20.40;99.90
55004;DHT22;40900;52.710;6.438;2022-09-09T11:55:59;20.50;99.90
55004;DHT22;40900;52.710;6.438;2022-09-09T11:58:25;20.30;99.90
55004;DHT22;40900;52.710;6.438;2022-09-09T12:00:51;20.20;99.90
55004;DHT22;40900;52.710;6.438;2022-09-09T12:06:26;19.90;99.90
55004;DHT22;40900;52.710;6.438;2022-09-09T12:08:57;19.80;99.90
55004;DHT22;40900;52.710;6.438;2022-09-09T12:11:28;19.90;99.90
55004;DHT22;40900;52.710;6.438;2022-09-09T12:13:57;19.90;99.90
55004;DHT22;40900;52.710;6.438;2022-09-09T12:19:19;20.10;99.90
55004;DHT22;40900;52.710;6.438;2022-09-09T12:29:44;19.60;99.90
55004;DHT22;40900;52.710;6.438;2022-09-09T12:32:22;19.60;99.90
55004;DHT22;40900;52.710;6.438;2022-09-09T12:35:09;19.60;99.90
55004;DHT22;40900;52.710;6.438;2022-09-09T12:37:37;19.70;99.90
55004;DHT22;40900;52.710;6.438;2022-09-09T12:42:44;19.70;99.90
55004;DHT22;40900;52.710;6.438;2022-09-09T12:45:21;19.80;99.90
55004;DHT22;40900;52.710;6.438;2022-09-09T12:47:52;19.90;99.90
55004;DHT22;40900;52.710;6.438;2022-09-09T12:50:22;19.90;99.90
55004;DHT22;40900;52.710;6.438;2022-09-09T12:52:53;19.80;99.90
55004;DHT22;40900;52.710;6.438;2022-09-09T12:55:21;19.70;99.90
55004;DHT22;40900;52.710;6.438;2022-09-09T12:57:51;19.60;99.90
55004;DHT22;40900;52.710;6.438;2022-09-09T13:00:20;19.60;99.90
55004;DHT22;40900;52.710;6.438;2022-09-09T13:02:56;19.70;99.90
55004;DHT22;40900;52.710;6.438;2022-09-09T13:05:28;19.90;99.90
55004;DHT22;40900;52.710;6.438;2022-09-09T13:08:10;19.90;99.90
55004;DHT22;40900;52.710;6.438;2022-09-09T13:11:02;19.80;99.90
55004;DHT22;40900;52.710;6.438;2022-09-09T13:13:37;19.90;99.90
55004;DHT22;40900;52.710;6.438;2022-09-09T13:16:04;19.90;99.90
55004;DHT22;40900;52.710;6.438;2022-09-09T13:18:35;19.70;99.90
55004;DHT22;40900;52.710;6.438;2022-09-09T13:21:03;19.50;99.90
55004;DHT22;40900;52.710;6.438;2022-09-09T13:23:36;19.00;99.90
55004;DHT22;40900;52.710;6.438;2022-09-09T13:26:19;18.80;99.90
55004;DHT22;40900;52.710;6.438;2022-09-09T13:28:48;18.70;99.90
55004;DHT22;40900;52.710;6.438;2022-09-09T13:31:28;18.50;99.90
55004;DHT22;40900;52.710;6.438;2022-09-09T13:33:53;18.60;99.90
55004;DHT22;40900;52.710;6.438;2022-09-09T13:36:29;18.80;99.90
55004;DHT22;40900;52.710;6.438;2022-09-09T13:38:57;19.00;99.90
55004;DHT22;40900;52.710;6.438;2022-09-09T13:41:36;19.00;99.90
55004;DHT22;40900;52.710;6.438;2022-09-09T13:44:20;19.10;99.90
55004;DHT22;40900;52.710;6.438;2022-09-09T13:46:58;19.00;99.90
55004;DHT22;40900;52.710;6.438;2022-09-09T13:49:28;19.10;99.90
55004;DHT22;40900;52.710;6.438;2022-09-09T13:52:04;19.30;99.90
55004;DHT22;40900;52.710;6.438;2022-09-09T13:54:33;19.50;99.90
55004;DHT22;40900;52.710;6.438;2022-09-09T13:56:58;19.70;99.90
55004;DHT22;40900;52.710;6.438;2022-09-09T13:59:24;20.00;99.90
55004;DHT22;40900;52.710;6.438;2022-09-09T14:01:51;20.10;99.90
55004;DHT22;40900;52.710;6.438;2022-09-09T14:04:18;20.10;99.90
55004;DHT22;40900;52.710;6.438;2022-09-09T14:06:47;20.10;99.90
55004;DHT22;40900;52.710;6.438;2022-09-09T14:09:15;20.10;99.90
55004;DHT22;40900;52.710;6.438;2022-09-09T14:11:41;20.10;99.90
55004;DHT22;40900;52.710;6.438;2022-09-09T14:14:08;20.20;99.90
55004;DHT22;40900;52.710;6.438;2022-09-09T14:16:34;20.30;99.90
55004;DHT22;40900;52.710;6.438;2022-09-09T14:19:00;20.40;99.90
55004;DHT22;40900;52.710;6.438;2022-09-09T14:21:27;20.30;99.90
55004;DHT22;40900;52.710;6.438;2022-09-09T14:23:53;20.30;99.90
55004;DHT22;40900;52.710;6.438;2022-09-09T14:26:20;20.10;99.90
55004;DHT22;40900;52.710;6.438;2022-09-09T14:28:47;20.10;99.90
55004;DHT22;40900;52.710;6.438;2022-09-09T14:31:13;20.00;99.90
55004;DHT22;40900;52.710;6.438;2022-09-09T14:33:39;20.00;99.90
55004;DHT22;40900;52.710;6.438;2022-09-09T14:36:05;19.90;99.90
55004;DHT22;40900;52.710;6.438;2022-09-09T14:38:32;19.90;99.90
55004;DHT22;40900;52.710;6.438;2022-09-09T14:41:02;19.90;99.90
55004;DHT22;40900;52.710;6.438;2022-09-09T14:43:29;20.00;99.90
55004;DHT22;40900;52.710;6.438;2022-09-09T14:45:55;20.00;99.90
55004;DHT22;40900;52.710;6.438;2022-09-09T14:48:21;19.90;99.90
55004;DHT22;40900;52.710;6.438;2022-09-09T14:50:46;19.90;99.90
55004;DHT22;40900;52.710;6.438;2022-09-09T14:53:12;19.80;99.90
55004;DHT22;40900;52.710;6.438;2022-09-09T14:55:38;19.70;99.90
55004;DHT22;40900;52.710;6.438;2022-09-09T14:58:04;19.60;99.90
55004;DHT22;40900;52.710;6.438;2022-09-09T15:00:31;19.50;99.90
55004;DHT22;40900;52.710;6.438;2022-09-09T15:02:57;19.60;99.90
55004;DHT22;40900;52.710;6.438;2022-09-09T15:05:23;19.70;99.90
55004;DHT22;40900;52.710;6.438;2022-09-09T15:07:49;19.70;99.90
55004;DHT22;40900;52.710;6.438;2022-09-09T15:10:15;19.70;99.90
55004;DHT22;40900;52.710;6.438;2022-09-09T15:12:43;19.60;99.90
55004;DHT22;40900;52.710;6.438;2022-09-09T15:15:09;19.50;99.90
55004;DHT22;40900;52.710;6.438;2022-09-09T15:17:35;19.50;99.90
55004;DHT22;40900;52.710;6.438;2022-09-09T15:20:03;19.40;99.90
55004;DHT22;40900;52.710;6.438;2022-09-09T15:22:28;19.20;99.90
55004;DHT22;40900;52.710;6.438;2022-09-09T15:24:54;19.10;99.90
55004;DHT22;40900;52.710;6.438;2022-09-09T15:27:20;19.00;99.90
55004;DHT22;40900;52.710;6.438;2022-09-09T15:29:45;18.80;99.90
55004;DHT22;40900;52.710;6.438;2022-09-09T15:32:12;18.70;99.90
55004;DHT22;40900;52.710;6.438;2022-09-09T15:34:38;18.70;99.90
55004;DHT22;40900;52.710;6.438;2022-09-09T15:37:04;18.60;99.90
55004;DHT22;40900;52.710;6.438;2022-09-09T15:39:30;18.60;99.90
55004;DHT22;40900;52.710;6.438;2022-09-09T15:41:55;18.70;99.90
55004;DHT22;40900;52.710;6.438;2022-09-09T15:44:22;18.80;99.90
55004;DHT22;40900;52.710;6.438;2022-09-09T15:46:52;18.90;99.90
55004;DHT22;40900;52.710;6.438;2022-09-09T15:49:25;19.00;99.90
55004;DHT22;40900;52.710;6.438;2022-09-09T15:51:56;19.00;99.90
55004;DHT22;40900;52.710;6.438;2022-09-09T15:54:32;19.00;99.90
55004;DHT22;40900;52.710;6.438;2022-09-09T15:56:59;19.00;99.90
55004;DHT22;40900;52.710;6.438;2022-09-09T15:59:27;19.00;99.90
55004;DHT22;40900;52.710;6.438;2022-09-09T16:01:54;19.00;99.90
55004;DHT22;40900;52.710;6.438;2022-09-09T16:04:21;18.90;99.90
55004;DHT22;40900;52.710;6.438;2022-09-09T16:06:56;19.00;99.90
55004;DHT22;40900;52.710;6.438;2022-09-09T16:09:24;19.00;99.90
55004;DHT22;40900;52.710;6.438;2022-09-09T16:11:50;19.10;99.90
55004;DHT22;40900;52.710;6.438;2022-09-09T16:14:18;19.10;99.90
55004;DHT22;40900;52.710;6.438;2022-09-09T16:16:44;19.10;99.90
55004;DHT22;40900;52.710;6.438;2022-09-09T16:19:12;19.10;99.90
55004;DHT22;40900;52.710;6.438;2022-09-09T16:21:46;19.00;99.90
55004;DHT22;40900;52.710;6.438;2022-09-09T16:24:14;18.90;99.90
55004;DHT22;40900;52.710;6.438;2022-09-09T16:26:42;18.90;99.90
55004;DHT22;40900;52.710;6.438;2022-09-09T16:29:14;18.90;99.90
55004;DHT22;40900;52.710;6.438;2022-09-09T16:31:40;18.80;99.90
55004;DHT22;40900;52.710;6.438;2022-09-09T16:34:07;18.80;99.90
55004;DHT22;40900;52.710;6.438;2022-09-09T16:36:35;18.80;99.90
55004;DHT22;40900;52.710;6.438;2022-09-09T16:39:12;18.80;99.90
55004;DHT22;40900;52.710;6.438;2022-09-09T16:41:38;18.80;99.90
55004;DHT22;40900;52.710;6.438;2022-09-09T16:44:07;18.80;99.90
55004;DHT22;40900;52.710;6.438;2022-09-09T16:46:36;18.80;99.90
55004;DHT22;40900;52.710;6.438;2022-09-09T16:49:03;18.80;99.90
55004;DHT22;40900;52.710;6.438;2022-09-09T16:51:35;18.80;99.90
55004;DHT22;40900;52.710;6.438;2022-09-09T16:54:03;18.70;99.90
55004;DHT22;40900;52.710;6.438;2022-09-09T16:56:31;18.60;99.90
55004;DHT22;40900;52.710;6.438;2022-09-09T16:59:02;18.60;99.90
55004;DHT22;40900;52.710;6.438;2022-09-09T17:01:30;18.50;99.90
55004;DHT22;40900;52.710;6.438;2022-09-09T17:04:00;18.50;99.90
55004;DHT22;40900;52.710;6.438;2022-09-09T17:06:27;18.40;99.90
55004;DHT22;40900;52.710;6.438;2022-09-09T17:09:03;18.40;99.90
55004;DHT22;40900;52.710;6.438;2022-09-09T17:11:29;18.40;99.90
55004;DHT22;40900;52.710;6.438;2022-09-09T17:13:56;18.30;99.90
55004;DHT22;40900;52.710;6.438;2022-09-09T17:16:25;18.30;99.90
55004;DHT22;40900;52.710;6.438;2022-09-09T17:18:52;18.30;99.90
55004;DHT22;40900;52.710;6.438;2022-09-09T17:21:23;18.30;99.90
55004;DHT22;40900;52.710;6.438;2022-09-09T17:23:51;18.20;99.90
55004;DHT22;40900;52.710;6.438;2022-09-09T17:26:19;18.20;99.90
55004;DHT22;40900;52.710;6.438;2022-09-09T17:28:45;18.20;99.90
55004;DHT22;40900;52.710;6.438;2022-09-09T17:31:13;18.20;99.90
55004;DHT22;40900;52.710;6.438;2022-09-09T17:33:40;18.20;99.90
55004;DHT22;40900;52.710;6.438;2022-09-09T17:36:16;18.20;99.90
55004;DHT22;40900;52.710;6.438;2022-09-09T17:38:42;18.20;99.90
55004;DHT22;40900;52.710;6.438;2022-09-09T17:43:40;18.10;99.90
55004;DHT22;40900;52.710;6.438;2022-09-09T17:46:07;18.10;99.90